Davenport, IA (52809)

12:49 AM CDT on July 28, 2016 (GMT -0500)
West Hayes by Hickory Grove Road | | Change Station

Elev 676 ft 41.55 °N, 90.61 °W | Updated 13 minutes ago

Partly Cloudy
Partly Cloudy
74.1 °F
Feels Like 74 °F
N
0.0
Wind Variable Wind from NW

Today
High -- | Low -- °F
--% Chance of Precip.
Yesterday
High -- | Low -- °F
Precip. -- in
Pressure 29.93 in
Visibility 10.0 miles
Clouds Few 4200 ft
Heat Index 74 °F
Dew Point 68 °F
Humidity 80%
Rainfall 0.00 in
Snow Depth Not available.
5:53 AM 8:23 PM
Waning Crescent, 35% visible
METAR KDVN 280452Z AUTO 20003KT 10SM FEW042 22/21 A2994 RMK AO2 SLP133 T02220206
Pressure 29.93 in
Visibility 10.0 miles
Clouds Few 4200 ft
Heat Index 74 °F
Dew Point 68 °F
Humidity 80%
Rainfall 0.00 in
Snow Depth Not available.
5:53 AM 8:23 PM
Waning Crescent, 35% visible
METAR KDVN 280452Z AUTO 20003KT 10SM FEW042 22/21 A2994 RMK AO2 SLP133 T02220206

10-Day Weather Forecast

Almanac

Astronomy

Jul. 28, 2016 Rise Set
Actual Time
Civil Twilight
Nautical Twilight
Astronomical Twilight
Moon
Length of Visible Light
Length of Day
Tomorrow will be .
, % of the Moon is Illuminated

Today's Extremes

State Highs State Lows

Community

WunderPhotos

Upload Photos

1,928,064 photos uploaded!

WunderBlog® & News

Nearby

Air Quality

  Air Quality AQ Index Pollutant
Not available.

Snow Depth

Station Depth Elevation

Earthquake Activity

City Distance Mag. Time & Date
Minimum magnitude displayed is 2.5.

Coastal Water Temperatures

Place Temperature

Stations

Nearby Weather Stations

Station Location Temp. Windchill Dew Point Humidity Wind Precip. Elev Updated Type
                   

Watches & Warnings

There are currently no watches in effect.